Auriesville, NY

11:49 PM EDT on March 28, 2015 (GMT -0400)
Dykeman Farms | | Change Station
CLOSE
Current Station
Personal Weather Station
Location: Fultonville, NY
Elevation: 505 ft
Nearby Weather Stations
Active Advisory: Special Statement

Elev 505 ft 42.91 °N, 74.36 °W | Updated 9 minutes ago

Partly Cloudy
Partly Cloudy
20.9 °F
Feels Like 13 °F
N
6.0
Wind Variable Wind from NW
Gusts 8.0 mph

Today
High -- | Low -- °F
--% Chance of Precip.
Yesterday
High -- | Low -- °F
Precip. -- in
6:46 AM 7:18 PM
Waxing Gibbous, 68% visible
Pressure 30.12 in
Visibility 10.0 miles
Clouds Overcast 5000 ft
Windchill 13 °F
Dew Point 8 °F
Humidity 57%
Rainfall 0.00 in
Snow Depth Not available.
UV 0 out of 12
Pollen 2.60 out of 12
Air Quality Not available.
Flu Activity Not available.
METAR KSCH 290150Z 32007KT 10SM OVC050 M03/M12 A3012 RMK LAST

More Conditions Fewer Conditions

Pressure 30.12 in
Visibility 10.0 miles
Clouds Overcast 5000 ft
Windchill 13 °F
Dew Point 8 °F
Humidity 57%
Rainfall 0.00 in
Snow Depth Not available.
UV 0 out of 12
Pollen 2.60 out of 12
Air Quality Not available.
Flu Activity Not available.
METAR KSCH 290150Z 32007KT 10SM OVC050 M03/M12 A3012 RMK LAST

More Conditions Fewer Conditions

10-Day Weather Forecast

Almanac

Astronomy

Mar. 28, 2015 Rise Set
Actual Time
Civil Twilight
Nautical Twilight
Astronomical Twilight
Moon
Length of Visible Light
Length of Day
Tomorrow will be .
, % of the Moon is Illuminated

Today's Extremes

State Highs State Lows

Community

WunderPhotos

Upload Photos

1,809,177 photos uploaded!

WunderBlogs® & News

Nearby

Air Quality

  Air Quality AQ Index Pollutant
Not available.

Snow Depth

Station Depth Elevation

Earthquake Activity

City Distance Mag. Time & Date
Minimum magnitude displayed is 2.5.

Coastal Water Temperatures

Place Temperature

Stations

Nearby Weather Stations

Station Location Temp. Windchill Dew Point Humidity Wind Precip. Elev Updated Type
                   
Special Statement
Statement as of 8:00 PM EDT on March 28, 2015

... Areas of black ice possible overnight...

Snow showers will gradually taper off this evening. Much of the
snow which occurred today melted on contact with most pavement
surfaces. However... as the sun sets... lingering water from melted
snow will likely freeze up as temperatures fall well below the
freezing mark. This will create areas of black ice... especially on
untreated pavement surfaces including roadways... parking
lots... and driveways. Motorists and pedestrians are urged to use
extra caution if driving or walking this evening and overnight.